Time;durP1;ratioP1;P1;durP2;ratioP2;P2;SDS_P1;SDS_P2;PMS_P1;PMS_P2;Temp;Humidity;BMP_temperature;BMP_pressure;BME280_temperature;BME280_humidity;BME280_pressure;Samples;Min_cycle;Max_cycle;Signal;HPM_P1;HPM_P2
2021/03/05 00:01:00;;;;;;;4.20;1.20;;;1.40;78.70;;;;;;4988556;28;20377;-67
2021/03/05 00:03:25;;;;;;;3.45;0.88;;;1.50;78.90;;;;;;4995828;28;20033;-67
2021/03/05 00:05:52;;;;;;;4.18;0.90;;;1.40;78.90;;;;;;4996657;28;20113;-66
2021/03/05 00:08:18;;;;;;;5.40;1.05;;;1.40;78.90;;;;;;4993965;28;20035;-67
2021/03/05 00:10:45;;;;;;;6.97;0.93;;;1.40;79.10;;;;;;4994762;28;20033;-67
2021/03/05 00:13:12;;;;;;;4.97;1.00;;;1.40;79.30;;;;;;4993631;28;20525;-67
2021/03/05 00:15:41;;;;;;;3.22;1.20;;;1.40;79.50;;;;;;4995288;28;20034;-66
2021/03/05 00:18:07;;;;;;;7.18;1.08;;;1.30;79.40;;;;;;4994328;28;20038;-67
2021/03/05 00:20:34;;;;;;;3.22;0.82;;;1.30;79.60;;;;;;4995122;28;20046;-67
2021/03/05 00:23:00;;;;;;;5.45;0.93;;;1.30;79.50;;;;;;4994657;28;20030;-67
2021/03/05 00:25:27;;;;;;;5.00;1.00;;;1.30;79.60;;;;;;5002042;28;20034;-67
2021/03/05 00:27:53;;;;;;;7.45;1.40;;;1.30;79.60;;;;;;4996139;28;20376;-67
2021/03/05 00:30:19;;;;;;;2.40;0.80;;;1.30;79.60;;;;;;4993950;28;20022;-65
2021/03/05 00:32:45;;;;;;;6.68;1.00;;;1.30;79.60;;;;;;4996039;28;20046;-67
2021/03/05 00:35:13;;;;;;;8.60;1.27;;;1.30;79.40;;;;;;5001119;28;20084;-67
2021/03/05 00:37:39;;;;;;;3.92;0.88;;;1.40;79.70;;;;;;4998002;28;20041;-67
2021/03/05 00:40:08;;;;;;;3.47;0.90;;;1.30;79.40;;;;;;4998509;28;20046;-67
2021/03/05 00:42:34;;;;;;;5.15;1.40;;;1.30;79.30;;;;;;4992519;28;20046;-68
2021/03/05 00:45:00;;;;;;;5.18;1.35;;;1.30;79.40;;;;;;4997302;28;20034;-67
2021/03/05 00:47:25;;;;;;;12.85;1.77;;;1.30;79.10;;;;;;4996932;28;21920;-67
2021/03/05 00:49:51;;;;;;;2.67;0.90;;;1.30;79.20;;;;;;4997877;28;20033;-73
2021/03/05 00:52:16;;;;;;;5.53;0.88;;;1.30;79.20;;;;;;4996890;28;20026;-67
2021/03/05 00:54:42;;;;;;;4.32;1.10;;;1.30;79.30;;;;;;4993146;28;20037;-67
2021/03/05 00:57:08;;;;;;;4.05;1.42;;;1.30;79.60;;;;;;4998760;28;20034;-67
2021/03/05 00:59:33;;;;;;;6.60;1.85;;;1.30;79.60;;;;;;4993888;28;20026;-67
2021/03/05 01:01:59;;;;;;;5.75;1.27;;;1.30;79.60;;;;;;4993397;28;20038;-67
2021/03/05 01:04:25;;;;;;;4.15;1.05;;;1.20;79.70;;;;;;4996084;28;20030;-66
2021/03/05 01:06:51;;;;;;;3.90;1.00;;;1.20;79.80;;;;;;4997261;28;20026;-67
2021/03/05 01:09:17;;;;;;;7.28;1.40;;;1.20;80.00;;;;;;4997861;28;20424;-66
2021/03/05 01:11:43;;;;;;;3.00;1.27;;;1.20;80.30;;;;;;4997829;28;20056;-66
2021/03/05 01:14:09;;;;;;;6.80;1.50;;;1.20;80.20;;;;;;4998738;28;20416;-68
2021/03/05 01:16:34;;;;;;;5.00;1.20;;;1.20;80.20;;;;;;4999054;28;20029;-68
2021/03/05 01:19:00;;;;;;;3.25;1.33;;;1.20;80.40;;;;;;4995059;28;20038;-66
2021/03/05 01:21:25;;;;;;;3.80;1.00;;;1.10;80.60;;;;;;4998001;28;20025;-66
2021/03/05 01:23:51;;;;;;;3.65;1.55;;;1.10;80.50;;;;;;4997105;28;20023;-68
2021/03/05 01:26:17;;;;;;;5.13;1.23;;;1.10;80.80;;;;;;4997821;28;20033;-67
2021/03/05 01:28:45;;;;;;;3.88;1.00;;;1.10;80.80;;;;;;4995569;28;20031;-67
2021/03/05 01:31:12;;;;;;;3.75;0.98;;;1.10;80.70;;;;;;4995224;28;20026;-67
2021/03/05 01:33:38;;;;;;;4.70;1.45;;;1.10;80.80;;;;;;4998482;28;20048;-67
2021/03/05 01:36:04;;;;;;;7.25;1.33;;;1.10;81.00;;;;;;4994724;28;20473;-67
2021/03/05 01:38:30;;;;;;;7.60;1.52;;;1.10;81.10;;;;;;4995631;28;20137;-67
2021/03/05 01:40:55;;;;;;;8.35;1.88;;;1.10;81.00;;;;;;4996557;28;20105;-65
2021/03/05 01:43:21;;;;;;;5.60;1.10;;;1.00;80.90;;;;;;4996829;28;20566;-67
2021/03/05 01:45:47;;;;;;;5.50;1.63;;;1.00;80.90;;;;;;4999709;28;20033;-68
2021/03/05 01:48:18;;;;;;;3.92;1.20;;;1.00;81.30;;;;;;4995427;28;20034;-67
2021/03/05 01:50:58;;;;;;;3.10;1.17;;;1.00;81.10;;;;;;5009848;28;20036;-67
2021/03/05 01:53:24;;;;;;;8.93;1.92;;;1.00;81.30;;;;;;4994804;28;20114;-67
2021/03/05 01:55:50;;;;;;;9.15;2.30;;;1.00;81.30;;;;;;5000327;28;20109;-67
2021/03/05 01:58:15;;;;;;;8.10;1.65;;;1.00;81.30;;;;;;4997507;28;20133;-66
2021/03/05 02:00:49;;;;;;;4.10;1.48;;;0.90;81.20;;;;;;4996372;28;20030;-67
2021/03/05 02:03:15;;;;;;;5.53;1.55;;;0.90;81.40;;;;;;4994361;28;20464;-66
2021/03/05 02:05:40;;;;;;;5.47;1.30;;;0.90;81.20;;;;;;4998619;28;20044;-67
2021/03/05 02:08:11;;;;;;;6.85;1.33;;;0.90;81.40;;;;;;4998234;28;20026;-67
2021/03/05 02:10:39;;;;;;;8.05;1.63;;;0.90;81.60;;;;;;4994769;28;20022;-67
2021/03/05 02:13:05;;;;;;;6.43;1.40;;;0.90;81.60;;;;;;4999475;28;20046;-68
2021/03/05 02:15:35;;;;;;;7.10;1.13;;;0.90;81.60;;;;;;4995787;28;20030;-67
2021/03/05 02:18:03;;;;;;;8.23;1.60;;;0.90;81.60;;;;;;4995765;28;20026;-66
2021/03/05 02:20:47;;;;;;;6.38;1.27;;;0.90;81.60;;;;;;4994010;28;20031;-66
2021/03/05 02:23:39;;;;;;;10.40;3.78;;;0.90;81.50;;;;;;4993701;28;20030;-67
2021/03/05 02:26:33;;;;;;;5.15;1.25;;;0.80;81.60;;;;;;4997868;28;20472;-68
2021/03/05 02:29:40;;;;;;;4.05;1.13;;;0.90;81.60;;;;;;4995460;28;20030;-67
2021/03/05 02:32:12;;;;;;;4.82;1.05;;;0.80;81.70;;;;;;4963096;28;20030;-66
2021/03/05 02:34:45;;;;;;;7.40;1.42;;;0.80;81.60;;;;;;4996256;28;20022;-66
2021/03/05 02:37:12;;;;;;;3.70;1.10;;;0.80;81.60;;;;;;4994780;28;20356;-67
2021/03/05 02:39:59;;;;;;;6.50;1.30;;;0.80;81.60;;;;;;4994061;28;20018;-67
2021/03/05 02:42:30;;;;;;;3.50;1.00;;;0.80;81.70;;;;;;4991765;28;20476;-67
2021/03/05 02:45:00;;;;;;;5.32;1.27;;;0.80;81.80;;;;;;4992032;28;20040;-67
2021/03/05 02:47:29;;;;;;;5.25;1.13;;;0.80;81.80;;;;;;4996242;28;20034;-67
2021/03/05 02:49:55;;;;;;;8.15;1.30;;;0.80;81.60;;;;;;4994040;28;20034;-66
2021/03/05 02:52:22;;;;;;;6.63;1.30;;;0.80;81.60;;;;;;4992941;28;20026;-66
2021/03/05 02:54:54;;;;;;;5.78;1.25;;;0.80;81.70;;;;;;4995802;28;20041;-67
2021/03/05 02:57:23;;;;;;;4.97;1.10;;;0.80;81.60;;;;;;4995219;28;20030;-67
2021/03/05 02:59:50;;;;;;;9.25;1.25;;;0.80;81.70;;;;;;4992530;28;20074;-66
2021/03/05 03:02:16;;;;;;;4.60;1.30;;;0.80;81.70;;;;;;4993064;28;20045;-67
2021/03/05 03:04:43;;;;;;;7.93;2.10;;;0.80;81.60;;;;;;4997090;28;20368;-67
2021/03/05 03:07:12;;;;;;;7.35;1.40;;;0.80;81.80;;;;;;4996110;28;20387;-67
2021/03/05 03:09:40;;;;;;;7.72;1.85;;;0.80;81.90;;;;;;4995751;28;20085;-66
2021/03/05 03:12:09;;;;;;;8.77;1.40;;;0.70;81.80;;;;;;4998425;28;20045;-67
2021/03/05 03:14:38;;;;;;;6.78;1.63;;;0.70;81.80;;;;;;4977370;28;20026;-66
2021/03/05 03:17:06;;;;;;;5.85;1.20;;;0.70;81.90;;;;;;4992198;28;20085;-67
2021/03/05 03:19:33;;;;;;;4.82;1.13;;;0.70;81.70;;;;;;4992593;28;20034;-66
2021/03/05 03:22:01;;;;;;;5.43;1.23;;;0.70;81.70;;;;;;4993096;28;20036;-67
2021/03/05 03:24:27;;;;;;;3.50;1.20;;;0.70;81.70;;;;;;4995815;28;20484;-66
2021/03/05 03:26:56;;;;;;;4.55;1.30;;;0.70;81.90;;;;;;4996819;28;20041;-67
2021/03/05 03:29:22;;;;;;;9.32;1.25;;;0.70;82.00;;;;;;4994260;28;20025;-66
2021/03/05 03:31:47;;;;;;;5.57;1.20;;;0.70;81.90;;;;;;4996053;28;20476;-66
2021/03/05 03:34:13;;;;;;;6.35;1.30;;;0.60;82.20;;;;;;4994858;28;20615;-67
2021/03/05 03:36:41;;;;;;;7.00;1.10;;;0.60;82.00;;;;;;4996383;28;20481;-67
2021/03/05 03:39:09;;;;;;;6.88;1.40;;;0.60;82.10;;;;;;4995833;28;20042;-67
2021/03/05 03:41:36;;;;;;;5.45;1.30;;;0.60;82.40;;;;;;4994333;28;20030;-68
2021/03/05 03:44:12;;;;;;;4.53;1.10;;;0.60;82.40;;;;;;4996774;28;20037;-67
2021/03/05 03:46:42;;;;;;;5.65;1.33;;;0.60;82.40;;;;;;4994445;28;20026;-66
2021/03/05 03:49:13;;;;;;;9.45;1.60;;;0.60;82.30;;;;;;4991432;28;20034;-67
2021/03/05 03:51:50;;;;;;;4.65;1.30;;;0.60;82.20;;;;;;4993769;28;20435;-66
2021/03/05 03:54:17;;;;;;;3.85;1.23;;;0.60;82.40;;;;;;4995113;28;20034;-68
2021/03/05 03:56:45;;;;;;;4.07;1.05;;;0.50;82.40;;;;;;4993211;28;20029;-67
2021/03/05 03:59:14;;;;;;;4.28;1.27;;;0.50;82.60;;;;;;4999481;28;20084;-67
2021/03/05 04:01:44;;;;;;;7.65;1.85;;;0.50;82.50;;;;;;4998927;28;20033;-67
2021/03/05 04:04:11;;;;;;;5.20;1.33;;;0.50;82.50;;;;;;5001493;28;20472;-67
2021/03/05 04:06:37;;;;;;;6.10;1.70;;;0.50;82.60;;;;;;4998519;28;20022;-67
2021/03/05 04:09:05;;;;;;;7.97;1.38;;;0.50;82.70;;;;;;4995682;28;20026;-67
2021/03/05 04:11:31;;;;;;;4.57;1.48;;;0.50;82.60;;;;;;4996650;28;20165;-67
2021/03/05 04:13:57;;;;;;;6.35;1.48;;;0.40;82.80;;;;;;5001398;28;20041;-67
2021/03/05 04:16:23;;;;;;;6.53;1.25;;;0.40;82.90;;;;;;4998962;28;20034;-67
2021/03/05 04:18:52;;;;;;;6.65;1.00;;;0.40;82.80;;;;;;4999091;28;20026;-66
2021/03/05 04:21:27;;;;;;;5.75;1.42;;;0.40;82.90;;;;;;4997915;28;20048;-67
2021/03/05 04:23:53;;;;;;;4.18;1.40;;;0.40;82.70;;;;;;4998240;28;20018;-66
2021/03/05 04:26:19;;;;;;;4.35;1.40;;;0.40;82.80;;;;;;4999481;28;20105;-67
2021/03/05 04:28:44;;;;;;;7.30;1.40;;;0.40;83.30;;;;;;4997332;28;20088;-68
2021/03/05 04:31:10;;;;;;;7.05;1.80;;;0.40;82.70;;;;;;4994507;28;20493;-67
2021/03/05 04:33:36;;;;;;;6.63;1.50;;;0.40;82.70;;;;;;4998276;28;20476;-67
2021/03/05 04:36:03;;;;;;;7.82;1.60;;;0.30;82.80;;;;;;4986336;28;20034;-66
2021/03/05 04:38:29;;;;;;;5.50;1.50;;;0.30;82.80;;;;;;4997315;28;20480;-65
2021/03/05 04:40:54;;;;;;;4.95;1.58;;;0.30;82.90;;;;;;4997566;28;20033;-65
2021/03/05 04:43:20;;;;;;;6.20;1.67;;;0.30;83.00;;;;;;4993447;28;20152;-67
2021/03/05 04:45:45;;;;;;;5.80;1.80;;;0.30;83.10;;;;;;4998256;28;20049;-67
2021/03/05 04:48:11;;;;;;;7.20;1.58;;;0.20;83.30;;;;;;4996411;28;20081;-64
2021/03/05 04:50:37;;;;;;;4.70;1.65;;;0.20;83.20;;;;;;4997031;28;20034;-67
2021/03/05 04:53:04;;;;;;;5.57;1.58;;;0.20;83.20;;;;;;4997862;28;20041;-67
2021/03/05 04:55:30;;;;;;;7.40;1.75;;;0.20;83.20;;;;;;4995258;28;20088;-67
2021/03/05 04:57:56;;;;;;;4.78;1.90;;;0.20;83.20;;;;;;4998187;28;20038;-66
2021/03/05 05:00:22;;;;;;;6.38;1.65;;;0.20;83.20;;;;;;4994474;28;20425;-67
2021/03/05 05:02:47;;;;;;;7.60;2.30;;;0.10;83.30;;;;;;4996614;28;20511;-67
2021/03/05 05:05:14;;;;;;;4.20;1.25;;;0.10;83.30;;;;;;5001567;28;20031;-66
2021/03/05 05:07:40;;;;;;;6.40;1.60;;;0.10;83.40;;;;;;4996081;28;20022;-67
2021/03/05 05:10:06;;;;;;;8.40;1.60;;;0.10;83.40;;;;;;4999332;28;20036;-67
2021/03/05 05:12:32;;;;;;;6.47;1.63;;;0.10;83.40;;;;;;4997223;28;20044;-67
2021/03/05 05:14:57;;;;;;;8.52;1.90;;;0.10;83.60;;;;;;4999916;28;20030;-66
2021/03/05 05:17:23;;;;;;;6.50;1.75;;;0.10;83.40;;;;;;4998038;28;20041;-67
2021/03/05 05:19:49;;;;;;;5.93;2.15;;;0.00;83.60;;;;;;4997723;28;20034;-67
2021/03/05 05:22:14;;;;;;;6.95;1.80;;;0.00;83.60;;;;;;4994795;28;20088;-66
2021/03/05 05:24:40;;;;;;;6.03;2.17;;;0.00;83.60;;;;;;4999439;28;20030;-66
2021/03/05 05:27:06;;;;;;;4.72;1.88;;;0.00;83.60;;;;;;4995485;28;20061;-66
2021/03/05 05:29:31;;;;;;;8.52;2.30;;;0.00;83.80;;;;;;4994657;28;20058;-68
2021/03/05 05:31:57;;;;;;;7.07;1.73;;;0.00;83.70;;;;;;4981268;28;20042;-66
2021/03/05 05:34:25;;;;;;;5.22;1.83;;;0.00;83.80;;;;;;4999129;28;20030;-66
2021/03/05 05:36:54;;;;;;;9.57;2.03;;;-0.10;83.80;;;;;;4994167;28;20142;-66
2021/03/05 05:39:19;;;;;;;6.72;1.95;;;0.00;83.70;;;;;;4999024;28;20120;-68
2021/03/05 05:41:45;;;;;;;6.88;1.95;;;-0.10;83.90;;;;;;4999570;28;20048;-67
2021/03/05 05:44:11;;;;;;;11.75;2.40;;;-0.10;83.80;;;;;;4995355;28;20472;-66
2021/03/05 05:46:39;;;;;;;5.88;2.03;;;-0.10;83.90;;;;;;5011987;28;20033;-67
2021/03/05 05:49:07;;;;;;;5.40;2.08;;;-0.10;83.70;;;;;;4996845;28;20030;-67
2021/03/05 05:51:35;;;;;;;9.68;2.35;;;-0.10;84.10;;;;;;4998089;28;20026;-67
2021/03/05 05:54:18;;;;;;;6.13;2.28;;;-0.10;84.10;;;;;;4997718;28;20084;-67
2021/03/05 05:56:44;;;;;;;5.78;2.15;;;-0.20;84.00;;;;;;4995940;28;20035;-67
2021/03/05 05:59:09;;;;;;;10.95;2.30;;;-0.20;84.10;;;;;;4993779;28;20565;-66
2021/03/05 06:01:35;;;;;;;10.18;2.72;;;-0.20;84.00;;;;;;4994030;28;20037;-66
2021/03/05 06:04:07;;;;;;;6.38;2.38;;;-0.20;84.00;;;;;;5001747;28;20033;-66
2021/03/05 06:06:33;;;;;;;9.70;2.30;;;-0.10;84.00;;;;;;4996193;28;20042;-66
2021/03/05 06:09:00;;;;;;;6.20;2.35;;;-0.10;83.90;;;;;;4998229;28;20035;-66
2021/03/05 06:11:36;;;;;;;6.60;2.20;;;-0.10;83.90;;;;;;4997399;28;20550;-66
2021/03/05 06:14:06;;;;;;;6.15;2.30;;;-0.10;83.80;;;;;;4996810;28;20128;-66
2021/03/05 06:16:32;;;;;;;5.67;2.30;;;-0.10;83.90;;;;;;5000367;28;20423;-66
2021/03/05 06:18:59;;;;;;;4.55;1.98;;;-0.10;84.00;;;;;;4992618;28;20030;-66
2021/03/05 06:21:40;;;;;;;5.50;2.80;;;-0.10;84.00;;;;;;4996645;28;20105;-67
2021/03/05 06:24:08;;;;;;;;;;;-0.10;84.50;;;;;;4997711;28;20062;-66
2021/03/05 06:26:58;;;;;;;6.70;2.15;;;-0.10;84.10;;;;;;4995839;28;19933;-66
2021/03/05 06:29:51;;;;;;;4.90;1.88;;;-0.10;83.80;;;;;;4996565;28;20018;-68
2021/03/05 06:32:19;;;;;;;7.65;2.42;;;-0.10;83.90;;;;;;4991572;28;20057;-66
2021/03/05 06:34:51;;;;;;;6.30;2.13;;;0.00;84.40;;;;;;4980771;28;20038;-67
2021/03/05 06:37:20;;;;;;;7.60;2.08;;;0.20;86.30;;;;;;4998803;28;20038;-67
2021/03/05 06:39:56;;;;;;;4.88;1.92;;;0.40;83.70;;;;;;4992194;28;20038;-67
2021/03/05 06:42:25;;;;;;;5.85;2.25;;;0.40;82.40;;;;;;4998714;28;20083;-67
2021/03/05 06:44:51;;;;;;;5.47;2.13;;;0.40;82.30;;;;;;4995384;28;20027;-65
2021/03/05 06:47:19;;;;;;;9.38;2.40;;;0.30;82.40;;;;;;4995320;28;20132;-67
2021/03/05 06:49:46;;;;;;;6.43;2.45;;;0.30;82.40;;;;;;4991241;28;20124;-67
2021/03/05 06:52:14;;;;;;;7.68;2.70;;;0.30;82.60;;;;;;4989399;28;20274;-67
2021/03/05 06:54:44;;;;;;;7.35;2.33;;;0.20;82.90;;;;;;4994736;28;20031;-66
2021/03/05 06:57:11;;;;;;;6.13;2.13;;;0.20;82.90;;;;;;4999123;28;20038;-66
2021/03/05 06:59:46;;;;;;;5.15;2.05;;;0.20;83.00;;;;;;4994947;28;20044;-66
2021/03/05 07:02:16;;;;;;;4.90;2.13;;;0.20;82.80;;;;;;4994519;28;20041;-67
2021/03/05 07:04:49;;;;;;;7.05;2.30;;;0.20;82.90;;;;;;4995699;28;20030;-66
2021/03/05 07:07:16;;;;;;;6.30;2.33;;;0.30;82.70;;;;;;4987208;28;20676;-65
2021/03/05 07:09:47;;;;;;;5.85;2.30;;;0.30;82.90;;;;;;4995943;28;20037;-66
2021/03/05 07:12:17;;;;;;;5.45;2.72;;;0.30;82.70;;;;;;4993616;28;20040;-66
2021/03/05 07:14:44;;;;;;;6.38;2.13;;;0.30;82.50;;;;;;4996250;28;20035;-68
2021/03/05 07:17:11;;;;;;;8.73;2.25;;;0.30;82.50;;;;;;4993252;28;20492;-68
2021/03/05 07:19:38;;;;;;;6.72;2.13;;;0.30;82.60;;;;;;4994790;28;20038;-68
2021/03/05 07:22:05;;;;;;;8.43;2.40;;;0.30;82.60;;;;;;4992866;28;20473;-67
2021/03/05 07:24:32;;;;;;;6.13;2.15;;;0.30;82.40;;;;;;4994080;28;20117;-67
2021/03/05 07:27:02;;;;;;;5.45;1.95;;;0.40;82.20;;;;;;4994333;28;20025;-67
2021/03/05 07:29:45;;;;;;;3.73;2.30;;;0.40;82.00;;;;;;4994596;28;20030;-67
2021/03/05 07:32:15;;;;;;;5.60;2.13;;;0.40;81.70;;;;;;4996406;28;20352;-67
2021/03/05 07:35:03;;;;;;;5.30;1.95;;;0.40;82.00;;;;;;5000751;28;20026;-67
2021/03/05 07:37:31;;;;;;;6.50;2.10;;;0.40;82.00;;;;;;4999369;28;20095;-67
2021/03/05 07:40:04;;;;;;;8.82;2.25;;;0.50;81.60;;;;;;4998995;28;20414;-68
2021/03/05 07:42:32;;;;;;;12.93;3.00;;;0.50;81.60;;;;;;4989436;28;20037;-68
2021/03/05 07:44:58;;;;;;;6.47;2.15;;;0.50;81.70;;;;;;4996580;28;20023;-67
2021/03/05 07:47:27;;;;;;;5.60;1.80;;;0.50;81.50;;;;;;4992221;28;20112;-67
2021/03/05 07:49:59;;;;;;;5.53;2.00;;;0.60;81.20;;;;;;4993037;28;20567;-67
2021/03/05 07:52:24;;;;;;;;;;;0.60;80.80;;;;;;4989301;28;20041;-64
2021/03/05 07:54:51;;;;;;;8.13;2.22;;;0.60;80.50;;;;;;4992165;28;20375;-67
2021/03/05 07:57:19;;;;;;;7.97;2.05;;;0.70;80.50;;;;;;4992939;28;20041;-68
2021/03/05 07:59:50;;;;;;;6.30;2.13;;;0.70;80.50;;;;;;4990656;28;20030;-67
2021/03/05 08:02:18;;;;;;;5.35;1.90;;;0.70;80.30;;;;;;4995053;28;20052;-68
2021/03/05 08:07:25;;;;;;;7.18;2.45;;;0.80;79.50;;;;;;4993086;28;20077;-67
2021/03/05 08:09:51;;;;;;;6.38;1.80;;;0.80;79.50;;;;;;4988490;28;20084;-67
2021/03/05 08:12:33;;;;;;;7.57;2.17;;;0.80;79.60;;;;;;4998039;28;20035;-67
2021/03/05 08:15:23;;;;;;;4.43;1.77;;;0.80;78.80;;;;;;4996659;28;20500;-67
2021/03/05 08:17:50;;;;;;;6.63;2.20;;;0.90;79.10;;;;;;4987398;28;20104;-66
2021/03/05 08:20:18;;;;;;;5.55;1.90;;;0.90;79.10;;;;;;4998954;28;20030;-66
2021/03/05 08:22:56;;;;;;;5.05;1.75;;;0.90;79.40;;;;;;4993629;28;20119;-66
2021/03/05 08:25:30;;;;;;;9.55;2.10;;;1.00;79.20;;;;;;4994347;28;20022;-65
2021/03/05 08:28:04;;;;;;;4.57;1.77;;;1.00;78.20;;;;;;4992180;28;20369;-65
2021/03/05 08:30:29;;;;;;;4.32;1.70;;;1.10;77.60;;;;;;5000268;28;20373;-65
2021/03/05 08:33:02;;;;;;;9.30;2.30;;;1.10;78.00;;;;;;4998709;28;20090;-65
2021/03/05 08:35:31;;;;;;;4.93;2.25;;;1.10;77.40;;;;;;5000660;28;20050;-65
2021/03/05 08:38:08;;;;;;;4.07;1.60;;;1.20;77.60;;;;;;4998676;28;20404;-66
2021/03/05 08:40:46;;;;;;;6.15;2.00;;;1.20;78.00;;;;;;4997100;28;20038;-66
2021/03/05 08:43:21;;;;;;;7.22;1.55;;;1.30;77.10;;;;;;4996195;28;20022;-66
2021/03/05 08:45:51;;;;;;;3.47;1.60;;;1.30;77.10;;;;;;4996757;28;20050;-65
2021/03/05 08:48:40;;;;;;;6.90;2.03;;;1.30;77.30;;;;;;4996216;28;20065;-66
2021/03/05 08:51:07;;;;;;;5.72;1.77;;;1.40;77.10;;;;;;4997594;28;20121;-67
2021/03/05 08:53:37;;;;;;;6.53;1.83;;;1.40;77.00;;;;;;4996656;28;20038;-66
2021/03/05 08:56:03;;;;;;;5.88;1.52;;;1.40;76.00;;;;;;4997514;28;20496;-66
2021/03/05 08:58:32;;;;;;;4.20;1.40;;;1.50;75.70;;;;;;4996482;28;20053;-66
2021/03/05 09:00:58;;;;;;;4.55;1.73;;;1.50;75.60;;;;;;4995038;28;20453;-66
2021/03/05 09:03:25;;;;;;;2.83;1.40;;;1.60;74.60;;;;;;4992939;28;20651;-66
2021/03/05 09:05:51;;;;;;;9.25;2.15;;;1.60;74.90;;;;;;4994451;28;20026;-67
2021/03/05 09:08:26;;;;;;;5.03;1.50;;;1.70;75.00;;;;;;4996547;28;20080;-66
2021/03/05 09:11:00;;;;;;;4.50;1.40;;;1.70;74.20;;;;;;4996046;28;20155;-66
2021/03/05 09:13:31;;;;;;;3.30;1.27;;;1.80;73.90;;;;;;4999001;28;20156;-67
2021/03/05 09:15:59;;;;;;;6.35;1.50;;;1.80;73.30;;;;;;5000335;28;20506;-67
2021/03/05 09:18:29;;;;;;;2.45;1.20;;;1.90;72.30;;;;;;4999091;28;20105;-66
2021/03/05 09:21:02;;;;;;;4.07;1.35;;;1.90;70.90;;;;;;4996826;28;20137;-65
2021/03/05 09:23:36;;;;;;;4.35;1.30;;;2.00;70.90;;;;;;4993901;28;20041;-65
2021/03/05 09:26:06;;;;;;;3.22;1.75;;;2.00;70.20;;;;;;4996397;28;20026;-65
2021/03/05 09:28:39;;;;;;;2.75;1.35;;;2.10;69.40;;;;;;4998031;28;20026;-65
2021/03/05 09:31:05;;;;;;;4.40;1.35;;;2.10;70.20;;;;;;4994542;28;20022;-66
2021/03/05 09:33:36;;;;;;;3.92;1.50;;;2.10;70.40;;;;;;4995526;28;20035;-66
2021/03/05 09:36:14;;;;;;;2.63;1.33;;;2.20;69.80;;;;;;4995942;28;20033;-66
2021/03/05 09:38:42;;;;;;;2.63;1.08;;;2.20;69.50;;;;;;4993862;28;20034;-66
2021/03/05 09:41:22;;;;;;;2.78;0.93;;;2.20;69.40;;;;;;4995199;28;20128;-66
2021/03/05 09:44:10;;;;;;;2.92;1.30;;;2.30;65.90;;;;;;4994349;28;20031;-65
2021/03/05 09:46:40;;;;;;;5.28;1.10;;;2.40;64.00;;;;;;4994995;28;20026;-66
2021/03/05 09:49:26;;;;;;;3.30;0.90;;;2.60;64.30;;;;;;4996357;28;20284;-66
2021/03/05 09:51:53;;;;;;;2.40;0.90;;;2.60;64.00;;;;;;4994135;28;20519;-66
2021/03/05 09:54:32;;;;;;;1.98;0.90;;;2.70;65.00;;;;;;4990569;28;22785;-66
2021/03/05 09:56:58;;;;;;;6.63;0.90;;;2.80;62.80;;;;;;4995919;28;20046;-66
2021/03/05 09:59:23;;;;;;;4.03;0.98;;;2.90;61.40;;;;;;4994210;28;20396;-66
2021/03/05 10:01:49;;;;;;;1.58;0.75;;;3.00;60.40;;;;;;4994660;28;20452;-65
2021/03/05 10:04:17;;;;;;;3.75;0.63;;;3.10;61.90;;;;;;4995865;28;20057;-66
2021/03/05 10:06:53;;;;;;;2.65;0.90;;;3.10;62.10;;;;;;4994303;28;20018;-66
2021/03/05 10:09:21;;;;;;;3.03;1.15;;;3.20;61.20;;;;;;4990537;28;20567;-66
2021/03/05 10:11:47;;;;;;;3.92;1.00;;;3.30;62.40;;;;;;4993217;28;20459;-66
2021/03/05 10:14:23;;;;;;;3.95;1.20;;;3.40;63.30;;;;;;4992870;28;20061;-67
2021/03/05 10:16:50;;;;;;;6.35;1.27;;;3.50;65.40;;;;;;4995619;28;20034;-65
2021/03/05 10:19:17;;;;;;;1.70;0.85;;;3.70;65.50;;;;;;4994768;28;20038;-67
2021/03/05 10:21:50;;;;;;;3.13;1.23;;;3.90;69.40;;;;;;4998675;28;20407;-66
2021/03/05 10:24:26;;;;;;;4.25;1.42;;;4.20;65.90;;;;;;4992734;28;20054;-65
2021/03/05 10:27:11;;;;;;;4.93;2.20;;;4.50;67.60;;;;;;4992245;28;20558;-66
2021/03/05 10:30:04;;;;;;;2.95;1.10;;;4.80;64.20;;;;;;4996627;28;20117;-66
2021/03/05 10:32:37;;;;;;;2.67;0.82;;;5.00;56.90;;;;;;4997192;28;20064;-66
2021/03/05 10:35:15;;;;;;;2.53;0.95;;;5.20;61.60;;;;;;4992638;28;20040;-66
2021/03/05 10:37:43;;;;;;;2.47;0.88;;;5.60;58.90;;;;;;4995162;28;20035;-65
2021/03/05 10:40:11;;;;;;;2.55;0.52;;;5.80;57.70;;;;;;4993959;28;20121;-67
2021/03/05 10:42:37;;;;;;;1.70;0.85;;;6.20;53.70;;;;;;4997047;28;20034;-66
2021/03/05 10:45:04;;;;;;;1.75;0.43;;;6.50;54.60;;;;;;4998779;28;20485;-68
2021/03/05 10:47:32;;;;;;;1.75;0.75;;;7.00;53.00;;;;;;4996473;28;20032;-68
2021/03/05 10:50:00;;;;;;;2.53;0.70;;;7.20;50.90;;;;;;4992713;28;20037;-67
2021/03/05 10:52:27;;;;;;;2.22;0.80;;;7.50;52.00;;;;;;4996165;28;20505;-66
2021/03/05 10:54:53;;;;;;;2.38;0.73;;;7.70;49.90;;;;;;4994981;28;20030;-68
2021/03/05 10:57:20;;;;;;;1.40;0.70;;;7.70;47.20;;;;;;4995754;28;20039;-68
2021/03/05 10:59:47;;;;;;;1.52;0.65;;;7.80;49.80;;;;;;4994464;28;20121;-66
2021/03/05 11:02:14;;;;;;;1.65;0.90;;;7.80;44.60;;;;;;4977053;28;20025;-68
2021/03/05 11:04:40;;;;;;;3.58;0.70;;;7.80;48.90;;;;;;4992858;28;20022;-67
2021/03/05 11:07:06;;;;;;;2.28;0.50;;;7.70;44.60;;;;;;4996170;28;20023;-66
2021/03/05 11:09:32;;;;;;;1.13;0.50;;;7.90;48.00;;;;;;5020417;23;20503;-72
2021/03/05 11:11:59;;;;;;;2.65;0.73;;;8.00;47.00;;;;;;4979825;28;20035;-72
2021/03/05 11:14:28;;;;;;;2.28;0.90;;;8.80;47.30;;;;;;4976213;28;20033;-74
2021/03/05 11:16:54;;;;;;;4.00;0.80;;;10.00;43.30;;;;;;4977168;28;20066;-74
2021/03/05 11:19:24;;;;;;;5.07;0.65;;;11.30;43.60;;;;;;4975196;28;20026;-73
2021/03/05 11:21:50;;;;;;;1.20;0.47;;;11.60;35.40;;;;;;4974509;28;20031;-73
2021/03/05 11:24:16;;;;;;;2.25;0.60;;;11.60;35.80;;;;;;4973880;28;20085;-75
2021/03/05 11:26:42;;;;;;;2.17;0.73;;;11.90;38.30;;;;;;4975141;28;20029;-75
2021/03/05 11:29:13;;;;;;;2.53;1.10;;;12.00;37.50;;;;;;4958537;28;20056;-76
2021/03/05 11:31:38;;;;;;;3.22;0.80;;;12.30;35.20;;;;;;4960292;28;20045;-75
2021/03/05 11:34:04;;;;;;;2.05;0.70;;;12.10;35.80;;;;;;4983489;28;20412;-76
2021/03/05 11:36:29;;;;;;;2.42;0.68;;;12.40;35.70;;;;;;4983371;28;20034;-76
2021/03/05 11:38:55;;;;;;;2.35;0.80;;;12.00;37.00;;;;;;4976151;28;20034;-74
2021/03/05 11:41:21;;;;;;;2.75;0.85;;;11.80;36.80;;;;;;4974151;28;20107;-75
2021/03/05 11:43:52;;;;;;;2.20;1.05;;;11.60;36.80;;;;;;4975239;28;20134;-76
2021/03/05 11:46:20;;;;;;;1.55;0.90;;;11.20;36.00;;;;;;4958806;28;20078;-75
2021/03/05 11:48:46;;;;;;;2.40;0.70;;;10.80;38.00;;;;;;4976184;28;20415;-76
2021/03/05 11:51:12;;;;;;;1.88;0.80;;;10.20;40.40;;;;;;4974525;28;20019;-76
2021/03/05 11:53:40;;;;;;;3.05;1.00;;;9.70;40.60;;;;;;4974608;28;20027;-75
2021/03/05 11:56:07;;;;;;;2.78;0.80;;;9.20;42.90;;;;;;4969088;28;20038;-75
2021/03/05 11:58:33;;;;;;;1.98;1.10;;;8.90;41.50;;;;;;4977024;28;20563;-76
2021/03/05 12:01:00;;;;;;;1.52;0.63;;;8.50;41.60;;;;;;4973926;28;20118;-75
2021/03/05 12:03:25;;;;;;;2.78;0.80;;;8.30;42.40;;;;;;4972811;28;20412;-75
2021/03/05 12:05:51;;;;;;;1.65;0.70;;;8.10;42.90;;;;;;4971018;28;20031;-76
2021/03/05 12:08:16;;;;;;;1.40;0.63;;;7.80;43.40;;;;;;4976830;28;20097;-75
2021/03/05 12:10:42;;;;;;;1.38;0.40;;;7.60;43.30;;;;;;4974350;28;20034;-75
2021/03/05 12:13:08;;;;;;;2.65;0.73;;;7.50;41.80;;;;;;4979138;28;20036;-75
2021/03/05 12:15:33;;;;;;;3.47;0.95;;;7.40;43.20;;;;;;4945263;28;20082;-74
2021/03/05 12:17:59;;;;;;;3.90;0.52;;;7.30;43.50;;;;;;4966563;28;20074;-74
2021/03/05 12:20:25;;;;;;;2.80;0.60;;;7.20;42.00;;;;;;4979886;28;20158;-76
2021/03/05 12:22:50;;;;;;;3.97;0.70;;;7.10;42.70;;;;;;4965885;28;20042;-74
2021/03/05 12:25:16;;;;;;;1.52;0.57;;;7.00;44.10;;;;;;4977247;28;20373;-74
2021/03/05 12:27:42;;;;;;;1.83;0.47;;;6.80;43.90;;;;;;4976299;28;20477;-76
2021/03/05 12:30:08;;;;;;;1.30;0.80;;;6.60;43.90;;;;;;4977921;28;20034;-74
2021/03/05 12:32:33;;;;;;;2.13;0.65;;;6.50;43.90;;;;;;4978353;28;20063;-76
2021/03/05 12:34:59;;;;;;;2.17;0.80;;;6.40;44.80;;;;;;4964081;28;20835;-75
2021/03/05 12:37:25;;;;;;;2.63;0.70;;;6.30;44.30;;;;;;4961466;28;20396;-76
2021/03/05 12:39:50;;;;;;;1.27;0.50;;;6.30;42.80;;;;;;4973954;28;20023;-74
2021/03/05 12:42:16;;;;;;;1.20;0.50;;;6.30;42.60;;;;;;4980651;28;20027;-76
2021/03/05 12:44:42;;;;;;;3.38;0.65;;;6.20;43.80;;;;;;4979164;28;20027;-78
2021/03/05 12:47:07;;;;;;;3.75;0.60;;;6.10;44.60;;;;;;4983570;28;20117;-75
2021/03/05 12:49:33;;;;;;;3.40;0.95;;;6.00;45.80;;;;;;4959065;28;20026;-75
2021/03/05 12:51:59;;;;;;;1.30;0.50;;;6.00;44.50;;;;;;4976974;28;20081;-76
2021/03/05 12:54:25;;;;;;;1.10;0.50;;;6.00;43.40;;;;;;4974077;28;20030;-77
2021/03/05 12:56:51;;;;;;;3.20;0.60;;;5.90;44.40;;;;;;4975681;28;20031;-76
2021/03/05 12:59:17;;;;;;;2.30;0.52;;;5.90;44.40;;;;;;4981607;28;20049;-77
2021/03/05 13:01:42;;;;;;;1.45;0.70;;;6.00;44.40;;;;;;4975814;28;20046;-77
2021/03/05 13:04:08;;;;;;;1.25;0.60;;;6.00;45.20;;;;;;4976681;28;20061;-77
2021/03/05 13:06:34;;;;;;;1.05;0.60;;;5.90;46.00;;;;;;4975116;28;20369;-76